This is the latest recevied weather packets stored in our database for station/object KG5MMT-15. If no packets are shown the sender has not sent any weather packets the latest 10 day(s).
| Time | Temp. | Humidity | Pressure | Rain* | Wind** | Luminosity | Snow |
|---|---|---|---|---|---|---|---|
| 1788443565 | 16.11° C | 66% | 0 hPa | 0 mm | - | - | - |
| 1788443265 | 16.11° C | 65% | 0 hPa | 0 mm | - | - | - |
| 1788442965 | 16.67° C | 61% | 0 hPa | 0 mm | - | - | - |
| 1788442665 | 16.67° C | 59% | 0 hPa | 0 mm | - | - | - |
| 1788442365 | 16.11° C | 61% | 0 hPa | 0 mm | - | - | - |
| 1788442065 | 15° C | 63% | 0 hPa | 0 mm | - | - | - |
| 1788441765 | 15° C | 65% | 0 hPa | 0 mm | - | - | - |
| 1788441465 | 14.44° C | 65% | 0 hPa | 0 mm | - | - | - |
| 1788441165 | 14.44° C | 65% | 0 hPa | 0 mm | - | - | - |
| 1788440865 | 15° C | 65% | 0 hPa | 0 mm | - | - | - |
| 1788440565 | 15° C | 62% | 0 hPa | 0 mm | - | - | - |
| 1788440265 | 15° C | 60% | 0 hPa | 0 mm | - | - | - |
| 1788439965 | 15° C | 59% | 0 hPa | 0 mm | - | - | - |
| 1788439665 | 15° C | 60% | 0 hPa | 0 mm | - | - | - |
| 1788439365 | 15° C | 60% | 0 hPa | 0 mm | - | - | - |
| 1788439065 | 15° C | 59% | 0 hPa | 0 mm | - | - | - |
| 1788438765 | 15° C | 59% | 0 hPa | 0 mm | - | - | - |
| 1788438465 | 15.56° C | 57% | 0 hPa | 0 mm | - | - | - |
| 1788438165 | 15.56° C | 56% | 0 hPa | 0 mm | - | - | - |
| 1788437865 | 15.56° C | 56% | 0 hPa | 0 mm | - | - | - |
| 1788437565 | 15° C | 58% | 0 hPa | 0 mm | - | - | - |
| 1788437265 | 15° C | 58% | 0 hPa | 0 mm | - | - | - |
| 1788436965 | 15° C | 59% | 0 hPa | 0 mm | - | - | - |
| 1788436665 | 15° C | 58% | 0 hPa | 0 mm | - | - | - |
| 1788436365 | 15.56° C | 55% | 0 hPa | 0 mm | - | - | - |
* Rain latest hour (hover to see other rain measurements)
** Current wind speed in m/s (hover to see current wind gust speed)